Time;durP1;ratioP1;P1;durP2;ratioP2;P2;SDS_P1;SDS_P2;PMS_P1;PMS_P2;Temp;Humidity;BMP_temperature;BMP_pressure;BME280_temperature;BME280_humidity;BME280_pressure;Samples;Min_cycle;Max_cycle;Signal;HPM_P1;HPM_P2
2023/08/11 00:01:14;;;;;;;10.00;8.25;;;;;;;17.08;100.00;101905.13;5032144;28;20129;-60
2023/08/11 00:03:43;;;;;;;10.40;8.68;;;;;;;17.11;100.00;101904.06;5030907;28;20413;-60
2023/08/11 00:06:13;;;;;;;9.63;7.90;;;;;;;17.08;100.00;101899.81;5030141;28;20454;-60
2023/08/11 00:08:42;;;;;;;10.73;7.60;;;;;;;17.15;100.00;101903.72;5031217;28;20668;-60
2023/08/11 00:11:11;;;;;;;9.70;7.28;;;;;;;17.08;100.00;101907.78;5030315;28;20107;-60
2023/08/11 00:13:40;;;;;;;10.27;7.93;;;;;;;17.06;100.00;101904.41;5029622;28;20051;-56
2023/08/11 00:16:10;;;;;;;10.43;7.38;;;;;;;17.01;100.00;101902.09;5030507;28;20056;-56
2023/08/11 00:18:39;;;;;;;10.10;7.20;;;;;;;16.91;100.00;101903.75;5029423;28;20057;-56
2023/08/11 00:21:08;;;;;;;8.95;7.05;;;;;;;16.97;100.00;101891.81;5032270;28;20053;-56
2023/08/11 00:23:39;;;;;;;9.48;7.63;;;;;;;16.95;100.00;101896.41;5033244;28;20045;-56
2023/08/11 00:26:08;;;;;;;10.85;7.07;;;;;;;16.88;100.00;101894.19;5033074;28;20056;-56
2023/08/11 00:28:36;;;;;;;9.73;6.50;;;;;;;16.90;100.00;101891.44;5033109;28;20049;-56
2023/08/11 00:31:05;;;;;;;13.52;7.82;;;;;;;16.88;100.00;101893.34;5030426;28;20037;-56
2023/08/11 00:33:33;;;;;;;10.23;8.15;;;;;;;16.89;100.00;101890.59;5029551;28;20057;-55
2023/08/11 00:36:01;;;;;;;10.60;7.30;;;;;;;16.83;100.00;101884.88;5033206;28;20049;-57
2023/08/11 00:38:39;;;;;;;9.63;7.45;;;;;;;16.76;100.00;101886.31;5030499;28;20044;-55
2023/08/11 00:41:07;;;;;;;11.40;8.70;;;;;;;16.78;100.00;101879.03;5029522;28;20049;-56
2023/08/11 00:43:36;;;;;;;12.55;9.35;;;;;;;16.66;100.00;101886.97;5029686;28;20512;-56
2023/08/11 00:46:10;;;;;;;10.50;9.00;;;;;;;16.67;100.00;101883.34;5029310;28;20061;-56
2023/08/11 00:48:39;;;;;;;13.18;9.65;;;;;;;16.70;100.00;101885.78;5028634;28;20507;-56
2023/08/11 00:51:09;;;;;;;10.02;7.97;;;;;;;16.66;100.00;101884.31;5031210;28;20183;-56
2023/08/11 00:53:40;;;;;;;13.20;8.55;;;;;;;16.65;100.00;101885.28;5032415;28;20107;-56
2023/08/11 00:56:09;;;;;;;12.98;8.93;;;;;;;16.66;100.00;101879.00;5032354;28;20532;-55
2023/08/11 00:58:38;;;;;;;13.02;9.88;;;;;;;16.61;100.00;101880.31;5029022;28;20506;-56
2023/08/11 01:01:06;;;;;;;11.63;10.18;;;;;;;16.55;100.00;101877.16;5029640;28;20118;-56
2023/08/11 01:03:35;;;;;;;11.77;9.68;;;;;;;16.61;100.00;101880.31;5028068;28;20041;-56
2023/08/11 01:06:10;;;;;;;11.05;9.32;;;;;;;16.54;100.00;101874.63;5044921;28;20402;-56
2023/08/11 01:09:03;;;;;;;11.98;9.98;;;;;;;16.51;100.00;101870.38;5031351;28;20095;-56
2023/08/11 01:11:44;;;;;;;12.13;9.90;;;;;;;16.44;100.00;101868.28;5032341;28;20045;-55
2023/08/11 01:14:22;;;;;;;11.02;9.38;;;;;;;16.41;100.00;101871.19;5030796;28;20057;-56
2023/08/11 01:16:52;;;;;;;12.32;10.25;;;;;;;16.37;100.00;101868.75;5028711;28;20049;-56
2023/08/11 01:19:28;;;;;;;11.48;10.00;;;;;;;16.31;100.00;101858.56;5031334;28;20474;-56
2023/08/11 01:21:58;;;;;;;;;;;;;;;16.38;100.00;101862.47;5029819;28;20042;-56
2023/08/11 01:24:31;;;;;;;11.52;9.55;;;;;;;16.34;100.00;101852.19;5028984;28;20276;-56
2023/08/11 01:26:59;;;;;;;12.82;10.13;;;;;;;16.31;100.00;101855.91;5031983;28;20120;-61
2023/08/11 01:29:27;;;;;;;11.73;9.73;;;;;;;16.35;100.00;101856.56;5047169;28;20056;-60
2023/08/11 01:31:56;;;;;;;12.52;10.10;;;;;;;16.30;100.00;101850.72;5047021;28;20414;-60
2023/08/11 01:34:24;;;;;;;12.18;9.80;;;;;;;16.28;100.00;101842.88;5047082;28;20053;-59
2023/08/11 01:36:58;;;;;;;11.25;9.45;;;;;;;16.33;100.00;101846.06;5032050;28;20053;-60
2023/08/11 01:39:26;;;;;;;12.32;9.18;;;;;;;16.26;100.00;101839.47;5028327;28;20152;-60
2023/08/11 01:41:56;;;;;;;13.43;9.73;;;;;;;16.19;100.00;101835.59;5028471;28;20501;-60
2023/08/11 01:44:26;;;;;;;11.23;9.60;;;;;;;16.28;100.00;101840.22;5028685;28;20543;-56
2023/08/11 01:46:56;;;;;;;10.57;9.25;;;;;;;16.25;100.00;101839.59;5031533;28;20061;-55
2023/08/11 01:49:26;;;;;;;11.70;8.45;;;;;;;16.25;100.00;101837.78;5031645;28;20400;-55
2023/08/11 01:51:55;;;;;;;10.70;8.52;;;;;;;16.18;100.00;101842.72;5030352;28;20049;-56
2023/08/11 01:54:24;;;;;;;10.48;9.10;;;;;;;16.18;100.00;101832.09;5026971;28;20630;-56
2023/08/11 01:56:52;;;;;;;11.55;8.88;;;;;;;16.17;100.00;101825.09;5043405;28;20081;-54
2023/08/11 01:59:23;;;;;;;11.35;8.98;;;;;;;16.15;100.00;101826.16;5031431;28;20424;-56
2023/08/11 02:01:51;;;;;;;11.35;8.73;;;;;;;16.11;100.00;101825.53;5031694;28;20053;-56
2023/08/11 02:04:20;;;;;;;10.85;8.68;;;;;;;16.09;100.00;101823.94;5029411;28;20500;-56
2023/08/11 02:06:49;;;;;;;10.98;7.97;;;;;;;16.10;100.00;101823.00;5028141;28;20503;-54
2023/08/11 02:09:17;;;;;;;11.07;8.07;;;;;;;16.04;100.00;101817.16;5026928;28;20045;-56
2023/08/11 02:11:45;;;;;;;11.05;8.32;;;;;;;16.07;100.00;101825.88;5031559;28;20061;-55
2023/08/11 02:14:13;;;;;;;10.70;8.10;;;;;;;15.96;100.00;101834.63;5031471;28;20041;-53
2023/08/11 02:16:43;;;;;;;11.90;9.05;;;;;;;15.91;100.00;101837.59;5031505;28;20530;-56
2023/08/11 02:19:11;;;;;;;11.23;8.90;;;;;;;15.86;100.00;101835.28;5028690;28;20108;-55
2023/08/11 02:21:42;;;;;;;12.00;8.32;;;;;;;15.84;100.00;101836.34;5027462;28;20087;-55
2023/08/11 02:24:10;;;;;;;11.52;8.90;;;;;;;15.92;100.00;101836.63;5030780;28;20067;-56
2023/08/11 02:26:39;;;;;;;10.75;8.02;;;;;;;15.93;100.00;101842.81;5031279;28;20517;-56
2023/08/11 02:29:07;;;;;;;10.02;7.75;;;;;;;15.87;100.00;101836.97;5031432;28;20116;-56
2023/08/11 02:31:35;;;;;;;10.13;7.45;;;;;;;15.94;100.00;101834.72;5029114;28;20045;-55
2023/08/11 02:34:05;;;;;;;11.02;8.27;;;;;;;15.89;100.00;101829.72;5027828;28;20057;-55
2023/08/11 02:36:36;;;;;;;10.20;8.38;;;;;;;15.80;100.00;101826.91;5027739;28;20503;-54
2023/08/11 02:39:06;;;;;;;11.23;8.32;;;;;;;15.83;100.00;101824.06;5026668;28;20053;-54
2023/08/11 02:41:34;;;;;;;10.98;8.30;;;;;;;15.82;100.00;101825.00;5028261;28;20048;-56
2023/08/11 02:44:03;;;;;;;12.48;8.40;;;;;;;15.81;100.00;101815.34;5030242;28;20053;-56
2023/08/11 02:46:31;;;;;;;11.55;8.63;;;;;;;15.70;100.00;101822.22;5034957;28;20053;-56
2023/08/11 02:48:59;;;;;;;11.23;8.25;;;;;;;15.77;100.00;101816.50;5034671;28;20041;-56
2023/08/11 02:51:29;;;;;;;11.32;8.65;;;;;;;15.74;100.00;101814.06;5031899;28;20100;-55
2023/08/11 02:53:57;;;;;;;10.20;7.70;;;;;;;15.74;100.00;101816.72;5030023;28;20055;-56
2023/08/11 02:56:25;;;;;;;10.52;8.30;;;;;;;15.65;100.00;101813.78;5033458;28;20045;-56
2023/08/11 02:58:56;;;;;;;10.93;7.78;;;;;;;15.69;100.00;101815.25;5034926;28;20045;-54
2023/08/11 03:01:25;;;;;;;11.75;7.85;;;;;;;15.63;100.00;101810.38;5034618;28;20073;-56
2023/08/11 03:03:58;;;;;;;10.05;7.40;;;;;;;15.63;100.00;101805.06;5030795;28;20045;-56
2023/08/11 03:06:32;;;;;;;10.52;8.02;;;;;;;15.58;100.00;101812.50;5032465;28;20053;-56
2023/08/11 03:09:01;;;;;;;11.25;8.25;;;;;;;15.48;100.00;101820.25;5031035;28;20148;-55
2023/08/11 03:11:30;;;;;;;10.32;8.38;;;;;;;15.54;100.00;101826.91;5031081;28;20120;-56
2023/08/11 03:14:01;;;;;;;12.32;8.93;;;;;;;15.47;100.00;101817.72;5034403;28;20058;-55
2023/08/11 03:16:31;;;;;;;11.57;8.68;;;;;;;15.45;100.00;101814.34;5033440;28;20501;-56
2023/08/11 03:19:00;;;;;;;11.50;8.80;;;;;;;15.51;100.00;101824.50;5030525;28;20076;-60
2023/08/11 03:21:28;;;;;;;11.60;8.40;;;;;;;15.44;100.00;101820.59;5031020;28;20128;-55
2023/08/11 03:23:57;;;;;;;12.10;8.88;;;;;;;15.54;100.00;101818.97;5029367;28;20060;-56
2023/08/11 03:26:25;;;;;;;13.02;8.95;;;;;;;15.46;100.00;101819.53;5030496;28;20482;-56
2023/08/11 03:28:54;;;;;;;13.52;9.23;;;;;;;15.44;100.00;101821.44;5031239;28;20111;-60
2023/08/11 03:31:22;;;;;;;11.93;8.57;;;;;;;15.44;100.00;101817.94;5031004;28;20493;-60
2023/08/11 03:33:50;;;;;;;11.20;8.88;;;;;;;15.40;100.00;101817.28;5030669;28;20049;-60
2023/08/11 03:36:19;;;;;;;12.57;8.82;;;;;;;15.32;100.00;101820.47;5046549;28;20060;-60
2023/08/11 03:38:48;;;;;;;11.88;8.85;;;;;;;15.38;100.00;101816.56;5029202;28;20674;-60
2023/08/11 03:41:18;;;;;;;11.77;8.88;;;;;;;15.26;100.00;101815.63;5033904;28;20052;-56
2023/08/11 03:43:47;;;;;;;12.40;9.50;;;;;;;15.34;100.00;101812.44;5030636;28;20085;-55
2023/08/11 03:46:15;;;;;;;11.65;9.63;;;;;;;15.28;100.00;101812.84;5032302;28;20532;-57
2023/08/11 03:48:44;;;;;;;12.10;8.98;;;;;;;15.32;100.00;101823.13;5031313;28;20056;-59
2023/08/11 03:51:12;;;;;;;12.98;9.88;;;;;;;15.20;100.00;101813.38;5031059;28;20485;-56
2023/08/11 03:53:40;;;;;;;11.63;9.32;;;;;;;15.27;100.00;101811.16;5032492;28;20046;-60
2023/08/11 03:56:08;;;;;;;10.23;8.73;;;;;;;15.32;100.00;101820.47;5030816;28;20045;-61
2023/08/11 03:58:38;;;;;;;11.05;8.68;;;;;;;15.26;100.00;101817.44;5030456;28;20034;-60
2023/08/11 04:01:06;;;;;;;11.93;9.05;;;;;;;15.29;100.00;101818.03;5030857;28;20067;-60
2023/08/11 04:03:35;;;;;;;12.15;9.75;;;;;;;15.27;100.00;101814.66;5029930;28;20053;-56
2023/08/11 04:06:03;;;;;;;13.35;10.07;;;;;;;15.25;100.00;101811.25;5029920;28;20042;-55
2023/08/11 04:08:31;;;;;;;12.25;9.27;;;;;;;15.23;100.00;101810.53;5028735;28;20072;-55
2023/08/11 04:11:00;;;;;;;12.75;8.95;;;;;;;15.18;100.00;101804.72;5029998;28;20408;-55
2023/08/11 04:13:28;;;;;;;13.73;9.68;;;;;;;15.13;100.00;101804.19;5029508;28;20072;-56
2023/08/11 04:15:59;;;;;;;14.55;9.50;;;;;;;15.10;100.00;101799.94;5031781;28;20049;-56
2023/08/11 04:18:27;;;;;;;12.38;9.88;;;;;;;15.06;100.00;101800.25;5032997;28;20103;-55
2023/08/11 04:20:55;;;;;;;13.25;9.35;;;;;;;15.08;100.00;101798.34;5029173;28;20488;-54
2023/08/11 04:23:23;;;;;;;14.52;10.55;;;;;;;15.01;100.00;101804.06;5028357;28;20393;-56
2023/08/11 04:25:52;;;;;;;13.73;10.27;;;;;;;15.01;100.00;101793.47;5028755;28;20076;-55
2023/08/11 04:28:21;;;;;;;13.85;10.02;;;;;;;15.08;100.00;101801.00;5029296;28;20564;-56
2023/08/11 04:30:50;;;;;;;11.80;9.73;;;;;;;15.06;100.00;101800.25;5029520;28;20159;-55
2023/08/11 04:33:20;;;;;;;12.82;10.07;;;;;;;15.08;100.00;101803.63;5031982;28;20353;-55
2023/08/11 04:35:49;;;;;;;14.80;10.20;;;;;;;15.09;100.00;101803.53;5027686;28;20417;-56
2023/08/11 04:38:17;;;;;;;13.60;10.43;;;;;;;15.07;100.00;101804.63;5029287;28;20060;-56
2023/08/11 04:40:49;;;;;;;11.38;9.98;;;;;;;15.09;100.00;101802.69;5028342;28;20049;-56
2023/08/11 04:43:18;;;;;;;12.40;10.13;;;;;;;15.09;100.00;101803.53;5028966;28;20096;-55
2023/08/11 04:45:47;;;;;;;14.52;11.02;;;;;;;15.02;100.00;101803.13;5029387;28;20065;-56
2023/08/11 04:48:15;;;;;;;13.25;11.30;;;;;;;14.99;100.00;101800.66;5029110;28;20058;-55
2023/08/11 04:50:48;;;;;;;14.10;11.35;;;;;;;15.04;100.00;101803.84;5029113;28;20453;-54
2023/08/11 04:53:16;;;;;;;;;;;;;;;15.10;100.00;101799.09;5029716;28;20045;-55
2023/08/11 04:55:44;;;;;;;13.80;10.48;;;;;;;15.04;100.00;101795.91;5028461;28;20435;-55
2023/08/11 04:58:13;;;;;;;12.88;10.82;;;;;;;15.05;100.00;101802.03;5032046;28;20139;-56
2023/08/11 05:00:41;;;;;;;12.25;9.93;;;;;;;15.03;100.00;101796.03;5029178;28;20087;-55
2023/08/11 05:03:09;;;;;;;12.18;10.07;;;;;;;15.11;100.00;101792.84;5029300;28;20041;-56
2023/08/11 05:05:38;;;;;;;11.80;10.13;;;;;;;15.13;100.00;101797.06;5043857;28;20050;-56
2023/08/11 05:08:07;;;;;;;13.18;10.88;;;;;;;15.06;100.00;101800.25;5028640;28;20053;-54
2023/08/11 05:10:36;;;;;;;17.08;12.27;;;;;;;15.04;100.00;101787.97;5029783;28;20144;-56
2023/08/11 05:13:04;;;;;;;14.10;11.75;;;;;;;15.06;100.00;101787.84;5032104;28;20056;-56
2023/08/11 05:15:33;;;;;;;13.30;11.45;;;;;;;15.03;100.00;101783.59;5028998;28;20128;-56
2023/08/11 05:18:02;;;;;;;16.00;11.85;;;;;;;15.05;100.00;101783.50;5044316;28;20053;-56
2023/08/11 05:20:30;;;;;;;15.63;12.80;;;;;;;15.04;100.00;101787.13;5030754;28;20042;-56
2023/08/11 05:22:58;;;;;;;16.23;12.15;;;;;;;15.08;100.00;101783.31;5029469;28;20080;-56
2023/08/11 05:25:28;;;;;;;15.20;13.00;;;;;;;15.13;100.00;101775.03;5027419;28;20045;-55
2023/08/11 05:27:56;;;;;;;16.85;12.70;;;;;;;15.19;100.00;101777.28;5030781;28;20060;-56
2023/08/11 05:30:27;;;;;;;16.45;13.63;;;;;;;15.20;100.00;101773.63;5028799;28;20049;-55
2023/08/11 05:32:56;;;;;;;18.98;13.63;;;;;;;15.24;100.00;101763.69;5030841;28;20041;-60
2023/08/11 05:35:26;;;;;;;15.00;13.25;;;;;;;15.28;100.00;101767.81;5032004;28;20562;-56
2023/08/11 05:37:54;;;;;;;15.57;13.52;;;;;;;15.27;100.00;101777.56;5031704;28;20143;-57
2023/08/11 05:40:23;;;;;;;18.35;13.98;;;;;;;15.33;100.00;101771.00;5027007;28;20049;-56
2023/08/11 05:42:52;;;;;;;17.20;13.07;;;;;;;15.41;100.00;101766.00;5029641;28;20064;-56
2023/08/11 05:45:20;;;;;;;15.23;13.15;;;;;;;15.46;100.00;101763.88;5031651;28;20045;-56
2023/08/11 05:47:49;;;;;;;15.68;13.50;;;;;;;15.51;100.00;101761.72;5031888;28;20037;-56
2023/08/11 05:50:17;;;;;;;15.30;13.68;;;;;;;15.55;100.00;101763.19;5031647;28;20099;-60
2023/08/11 05:52:45;;;;;;;17.30;13.25;;;;;;;15.63;100.00;101770.59;5031734;28;20053;-60
2023/08/11 05:55:13;;;;;;;15.98;12.82;;;;;;;15.71;100.00;101762.94;5031872;28;20516;-60
2023/08/11 05:57:44;;;;;;;14.95;13.35;;;;;;;15.74;100.00;101759.22;5031711;28;20099;-61
2023/08/11 06:00:16;;;;;;;15.88;14.18;;;;;;;15.83;100.00;101761.22;5031722;28;20065;-61
2023/08/11 06:02:45;;;;;;;16.95;14.27;;;;;;;15.92;100.00;101759.69;5031129;28;20055;-56
2023/08/11 06:05:13;;;;;;;14.63;12.10;;;;;;;15.99;100.00;101752.13;5028190;28;20142;-55
2023/08/11 06:07:41;;;;;;;15.77;12.23;;;;;;;16.05;100.00;101755.19;5029002;28;20041;-60
2023/08/11 06:10:27;;;;;;;15.00;11.25;;;;;;;16.22;100.00;101763.69;5031339;28;20148;-56
2023/08/11 06:12:56;;;;;;;13.38;11.15;;;;;;;16.27;100.00;101766.88;5028840;28;20041;-57
2023/08/11 06:15:25;;;;;;;15.48;11.85;;;;;;;16.34;100.00;101762.78;5028238;28;20076;-56
2023/08/11 06:17:54;;;;;;;12.88;10.45;;;;;;;16.49;100.00;101768.75;5031435;28;20073;-56
2023/08/11 06:20:22;;;;;;;13.82;11.05;;;;;;;16.59;100.00;101776.00;5033871;28;20048;-56
2023/08/11 06:23:07;;;;;;;15.43;10.45;;;;;;;16.73;100.00;101773.16;5032459;28;20053;-56
2023/08/11 06:25:38;;;;;;;15.38;9.98;;;;;;;16.97;100.00;101775.75;5029670;28;20076;-57
2023/08/11 06:28:07;;;;;;;13.93;10.00;;;;;;;17.02;100.00;101776.25;5032557;28;20045;-60
2023/08/11 06:30:36;;;;;;;12.93;9.93;;;;;;;17.14;100.00;101782.41;5031667;28;20041;-61
2023/08/11 06:33:05;;;;;;;15.10;10.23;;;;;;;17.29;100.00;101780.38;5032244;28;20056;-60
2023/08/11 06:35:34;;;;;;;14.18;9.48;;;;;;;17.51;100.00;101778.66;5032196;28;20049;-61
2023/08/11 06:38:03;;;;;;;12.93;8.70;;;;;;;17.58;100.00;101774.53;5035363;28;20042;-61
2023/08/11 06:40:31;;;;;;;12.32;9.30;;;;;;;17.73;100.00;101783.09;5034693;28;20041;-61
2023/08/11 06:42:59;;;;;;;12.98;9.00;;;;;;;17.81;100.00;101779.81;5031910;28;20061;-61
2023/08/11 06:45:27;;;;;;;12.65;8.82;;;;;;;17.94;100.00;101783.19;5031148;28;20385;-61
2023/08/11 06:47:57;;;;;;;18.02;9.40;;;;;;;18.06;100.00;101784.00;5046648;28;20053;-60
2023/08/11 06:50:25;;;;;;;11.25;8.43;;;;;;;18.13;100.00;101776.34;5031205;28;20046;-61
2023/08/11 06:52:53;;;;;;;13.10;9.00;;;;;;;18.23;100.00;101778.13;5031728;28;20515;-60
2023/08/11 06:55:25;;;;;;;18.17;8.98;;;;;;;18.36;100.00;101777.09;5028209;28;20069;-60
2023/08/11 06:57:56;;;;;;;15.70;8.52;;;;;;;18.59;100.00;101780.50;5031350;28;20412;-60
2023/08/11 07:00:24;;;;;;;13.30;8.65;;;;;;;18.80;100.00;101788.50;5031376;28;20049;-60
2023/08/11 07:02:52;;;;;;;11.65;6.97;;;;;;;18.89;100.00;101770.91;5034056;28;20053;-60
2023/08/11 07:05:22;;;;;;;11.52;7.72;;;;;;;19.04;100.00;101784.72;5034709;28;20041;-55
2023/08/11 07:07:50;;;;;;;12.23;8.60;;;;;;;19.14;100.00;101792.75;5034893;28;20054;-57
2023/08/11 07:10:18;;;;;;;14.00;8.00;;;;;;;19.23;100.00;101789.31;5049827;28;20053;-57
2023/08/11 07:12:46;;;;;;;13.45;8.07;;;;;;;19.43;100.00;101784.88;5032516;28;20386;-60
2023/08/11 07:15:15;;;;;;;11.27;7.22;;;;;;;19.54;100.00;101791.94;5031430;28;20056;-60
2023/08/11 07:17:43;;;;;;;14.05;7.57;;;;;;;19.71;100.00;101793.09;5030572;28;20148;-60
2023/08/11 07:20:12;;;;;;;12.88;7.53;;;;;;;19.85;100.00;101799.91;5030859;28;20397;-61
2023/08/11 07:22:41;;;;;;;13.80;7.85;;;;;;;19.95;100.00;101794.56;5030582;28;20073;-56
2023/08/11 07:25:09;;;;;;;12.13;6.65;;;;;;;20.09;100.00;101797.69;5029734;28;20042;-60
2023/08/11 07:27:37;;;;;;;11.02;7.40;;;;;;;20.30;100.00;101796.72;5033070;28;20427;-60
2023/08/11 07:30:07;;;;;;;11.30;6.97;;;;;;;20.46;100.00;101804.16;5033805;28;20064;-59
2023/08/11 07:32:35;;;;;;;11.30;6.30;;;;;;;20.64;100.00;101800.75;5034229;28;20054;-60
2023/08/11 07:35:05;;;;;;;11.57;7.22;;;;;;;20.88;100.00;101803.84;5034306;28;20084;-60
2023/08/11 07:37:33;;;;;;;12.00;6.93;;;;;;;21.06;100.00;101795.88;5032555;28;20046;-60
2023/08/11 07:40:04;;;;;;;11.00;6.22;;;;;;;21.13;100.00;101800.66;5029487;28;20481;-60
2023/08/11 07:42:32;;;;;;;11.23;6.78;;;;;;;21.25;100.00;101794.16;5030033;28;20402;-56
2023/08/11 07:45:00;;;;;;;10.45;6.60;;;;;;;21.39;100.00;101793.66;5030404;28;20138;-56
2023/08/11 07:47:29;;;;;;;14.00;6.70;;;;;;;21.55;100.00;101798.38;5045178;28;20041;-57
2023/08/11 07:49:57;;;;;;;12.05;6.60;;;;;;;21.73;100.00;101795.78;5029838;28;20045;-57
2023/08/11 07:52:25;;;;;;;10.20;5.45;;;;;;;22.09;100.00;101794.97;5030435;28;20049;-60
2023/08/11 07:54:53;;;;;;;12.05;6.13;;;;;;;22.34;100.00;101790.69;5028352;28;20486;-60
2023/08/11 07:57:23;;;;;;;12.93;7.18;;;;;;;22.51;100.00;101794.34;5033416;28;20059;-60
2023/08/11 07:59:51;;;;;;;12.02;5.97;;;;;;;22.68;100.00;101803.34;5032841;28;20077;-56
2023/08/11 08:02:19;;;;;;;11.40;6.25;;;;;;;22.81;100.00;101799.41;5030556;28;20516;-56
2023/08/11 08:04:47;;;;;;;13.80;6.25;;;;;;;22.97;100.00;101799.50;5031723;28;20049;-57
2023/08/11 08:07:16;;;;;;;11.50;6.38;;;;;;;23.00;100.00;101798.34;5033577;28;20155;-57
2023/08/11 08:09:44;;;;;;;11.73;5.88;;;;;;;23.26;100.00;101801.00;5033231;28;20099;-56
2023/08/11 08:12:15;;;;;;;10.55;5.30;;;;;;;23.45;100.00;101806.13;5033425;28;20056;-56
2023/08/11 08:14:45;;;;;;;9.77;5.90;;;;;;;23.68;100.00;101799.31;5031944;28;20540;-57
2023/08/11 08:17:13;;;;;;;10.65;5.28;;;;;;;23.83;100.00;101796.84;5045408;28;20053;-56
2023/08/11 08:19:41;;;;;;;9.77;5.00;;;;;;;24.03;100.00;101794.75;5029386;28;20045;-57
2023/08/11 08:22:09;;;;;;;9.95;5.20;;;;;;;24.12;100.00;101791.88;5029918;28;20129;-59
2023/08/11 08:24:38;;;;;;;8.73;4.88;;;;;;;24.00;100.00;101798.59;5027623;28;20076;-60
2023/08/11 08:27:06;;;;;;;10.02;4.80;;;;;;;24.22;100.00;101801.66;5031147;28;20060;-60
2023/08/11 08:29:35;;;;;;;9.55;4.88;;;;;;;24.45;100.00;101799.13;5033028;28;20763;-59
2023/08/11 08:32:05;;;;;;;10.32;5.32;;;;;;;24.71;100.00;101801.66;5033245;28;20473;-59
2023/08/11 08:34:33;;;;;;;10.00;4.97;;;;;;;25.00;100.00;101802.09;5033110;28;20045;-56
2023/08/11 08:37:01;;;;;;;9.50;4.30;;;;;;;25.34;100.00;101801.00;5032679;28;20566;-59
2023/08/11 08:39:29;;;;;;;8.93;4.38;;;;;;;25.30;100.00;101793.25;5031260;28;20045;-56
2023/08/11 08:41:59;;;;;;;9.82;4.95;;;;;;;25.47;100.00;101790.50;5029139;28;20287;-61
2023/08/11 08:44:28;;;;;;;9.68;4.85;;;;;;;25.43;100.00;101795.41;5031453;28;20660;-59
2023/08/11 08:47:06;;;;;;;8.93;4.20;;;;;;;25.70;100.00;101793.25;5032519;28;20050;-59
2023/08/11 08:49:36;;;;;;;8.85;4.50;;;;;;;25.77;100.00;101786.13;5028758;28;20049;-56
2023/08/11 08:52:05;;;;;;;9.98;4.20;;;;;;;25.94;100.00;101781.44;5030685;28;20052;-56
2023/08/11 08:54:34;;;;;;;10.50;4.05;;;;;;;26.15;100.00;101780.84;5032706;28;20037;-56
2023/08/11 08:57:05;;;;;;;10.15;4.20;;;;;;;26.08;100.00;101785.28;5031034;28;20500;-55
2023/08/11 08:59:34;;;;;;;7.05;3.90;;;;;;;26.44;100.00;101776.53;5029448;28;20037;-56
2023/08/11 09:02:03;;;;;;;7.70;4.63;;;;;;;26.65;100.00;101772.28;5032392;28;20045;-55
2023/08/11 09:04:35;;;;;;;7.65;4.25;;;;;;;26.74;100.00;101782.00;5031553;28;20052;-59
2023/08/11 09:07:03;;;;;;;11.65;4.82;;;;;;;26.68;100.00;101780.00;5029019;28;20069;-60
2023/08/11 09:09:32;;;;;;;9.63;4.32;;;;;;;26.68;100.00;101768.38;5027389;28;20053;-58
2023/08/11 09:12:03;;;;;;;8.68;4.10;;;;;;;26.92;100.00;101778.13;5032383;28;20049;-58
2023/08/11 09:14:32;;;;;;;8.90;3.90;;;;;;;27.23;100.00;101782.44;5031777;28;20053;-54
2023/08/11 09:17:01;;;;;;;8.57;4.50;;;;;;;27.39;100.00;101786.84;5031424;28;20065;-59
2023/08/11 09:19:29;;;;;;;9.45;4.80;;;;;;;27.35;100.00;101782.81;5028574;28;20049;-55
2023/08/11 09:21:58;;;;;;;10.27;4.07;;;;;;;27.53;100.00;101791.38;5045841;28;20068;-59
2023/08/11 09:24:30;;;;;;;9.45;4.30;;;;;;;27.39;100.00;101785.00;5032130;28;20099;-59
2023/08/11 09:27:00;;;;;;;8.68;4.32;;;;;;;27.70;100.00;101778.47;5031962;28;20041;-58
2023/08/11 09:29:29;;;;;;;8.13;4.25;;;;;;;27.97;100.00;101776.88;5028997;28;20146;-56
2023/08/11 09:31:57;;;;;;;8.90;3.92;;;;;;;28.09;100.00;101777.25;5030042;28;20405;-59
2023/08/11 09:34:25;;;;;;;8.00;4.20;;;;;;;28.52;100.00;101772.78;5029759;28;20046;-59
2023/08/11 09:36:53;;;;;;;10.70;4.38;;;;;;;28.23;100.00;101780.06;5044149;28;20123;-59
2023/08/11 09:39:23;;;;;;;8.13;3.97;;;;;;;28.57;100.00;101778.44;5027443;28;20057;-56
2023/08/11 09:41:51;;;;;;;7.88;3.85;;;;;;;28.18;100.00;101777.94;5029443;28;20046;-56
2023/08/11 09:44:21;;;;;;;7.78;4.35;;;;;;;28.13;100.00;101775.00;5028104;28;20103;-58
2023/08/11 09:46:49;;;;;;;9.68;4.13;;;;;;;28.53;100.00;101769.88;5029000;28;20061;-55
2023/08/11 09:49:19;;;;;;;8.32;3.63;;;;;;;28.84;99.88;101771.38;5031361;28;20056;-58
2023/08/11 09:51:49;;;;;;;7.28;3.53;;;;;;;28.91;99.36;101774.94;5028720;28;20512;-59
2023/08/11 09:54:20;;;;;;;7.10;3.75;;;;;;;29.14;97.54;101774.66;5026753;28;20127;-55
2023/08/11 09:56:50;;;;;;;6.97;3.40;;;;;;;29.27;98.13;101768.50;5030375;28;20048;-59
2023/08/11 09:59:21;;;;;;;7.88;4.00;;;;;;;29.55;89.82;101772.13;5028650;28;20144;-58
2023/08/11 10:01:54;;;;;;;7.47;3.72;;;;;;;30.15;91.14;101773.06;5027709;28;20045;-59
2023/08/11 10:04:26;;;;;;;7.70;3.53;;;;;;;29.92;86.06;101772.63;5030329;28;20057;-59
2023/08/11 10:06:59;;;;;;;8.75;3.47;;;;;;;29.96;83.18;101763.06;5031133;28;20500;-58
2023/08/11 10:09:29;;;;;;;7.32;3.35;;;;;;;30.42;85.06;101767.63;5031078;28;20057;-59
2023/08/11 10:12:00;;;;;;;12.20;4.00;;;;;;;30.71;82.52;101764.72;5030933;28;20073;-58
2023/08/11 10:14:29;;;;;;;10.65;3.75;;;;;;;30.90;77.89;101763.81;5031114;28;20596;-59
2023/08/11 10:16:59;;;;;;;8.85;3.85;;;;;;;30.83;77.67;101757.56;5031113;28;20053;-59
2023/08/11 10:19:27;;;;;;;7.38;3.70;;;;;;;30.52;76.59;101756.38;5031263;28;20487;-59
2023/08/11 10:21:57;;;;;;;7.15;3.22;;;;;;;30.63;81.58;101752.19;5030595;28;20088;-59
2023/08/11 10:24:27;;;;;;;8.20;3.40;;;;;;;30.65;78.39;101753.66;5026504;28;20124;-59
2023/08/11 10:27:00;;;;;;;7.88;3.80;;;;;;;31.03;77.63;101757.50;5028100;28;20107;-59
2023/08/11 10:29:29;;;;;;;7.57;3.75;;;;;;;31.09;78.50;101744.97;5027481;28;20393;-59
2023/08/11 10:31:59;;;;;;;7.68;3.40;;;;;;;31.33;72.47;101749.66;5030885;28;20054;-59
2023/08/11 10:34:28;;;;;;;6.15;3.22;;;;;;;31.44;74.21;101752.72;5029577;28;20053;-59
2023/08/11 10:37:00;;;;;;;8.57;3.63;;;;;;;31.28;72.75;101751.38;5027129;28;20045;-59
2023/08/11 10:39:28;;;;;;;7.57;3.63;;;;;;;31.26;71.89;101756.16;5026277;28;20073;-59
2023/08/11 10:41:57;;;;;;;7.07;3.22;;;;;;;31.69;75.46;101760.97;5027653;28;20601;-59
2023/08/11 10:44:30;;;;;;;10.07;3.50;;;;;;;31.91;74.96;101757.91;5027488;28;20540;-59
2023/08/11 10:47:00;;;;;;;7.43;3.72;;;;;;;31.60;71.84;101759.56;5028951;28;20092;-59
2023/08/11 10:49:34;;;;;;;8.30;2.92;;;;;;;31.60;75.31;101756.84;5027638;28;20055;-55
2023/08/11 10:52:05;;;;;;;8.77;3.00;;;;;;;31.82;74.51;101754.59;5030326;28;20052;-55
2023/08/11 10:54:33;;;;;;;5.90;3.00;;;;;;;31.96;72.40;101752.63;5030930;28;20055;-55
2023/08/11 10:57:02;;;;;;;5.82;3.03;;;;;;;32.06;73.59;101741.25;5030896;28;20049;-56
2023/08/11 10:59:34;;;;;;;8.98;3.10;;;;;;;32.39;73.96;101751.84;5030997;28;20129;-55
2023/08/11 11:02:02;;;;;;;7.07;3.53;;;;;;;32.49;68.14;101748.59;5031070;28;20045;-56
2023/08/11 11:04:32;;;;;;;9.20;3.22;;;;;;;32.71;68.52;101740.03;5028402;28;20500;-55
2023/08/11 11:07:01;;;;;;;5.57;2.90;;;;;;;32.58;73.54;101741.00;5030949;28;20496;-55
2023/08/11 11:09:30;;;;;;;7.13;3.35;;;;;;;32.64;68.64;101737.34;5029632;28;20049;-59
2023/08/11 11:11:58;;;;;;;6.25;2.92;;;;;;;32.88;68.96;101740.28;5032798;28;20037;-59
2023/08/11 11:14:26;;;;;;;7.00;3.20;;;;;;;33.02;67.70;101747.22;5031752;28;20064;-59
2023/08/11 11:16:59;;;;;;;7.57;3.20;;;;;;;33.48;65.84;101744.94;5046266;28;20053;-58
2023/08/11 11:19:28;;;;;;;7.05;2.80;;;;;;;33.23;65.12;101753.22;5033373;28;20045;-59
2023/08/11 11:21:57;;;;;;;6.07;2.40;;;;;;;32.71;61.21;101740.88;5034898;28;20038;-58